createdAt,value
2022-10-22T00:00:06.930Z,83.06
2022-10-22T00:03:02.838Z,83.11
2022-10-22T00:05:39.317Z,83.12
2022-10-22T00:08:15.606Z,83.27
2022-10-22T00:10:52.920Z,83.29
2022-10-22T00:13:29.231Z,83.32
2022-10-22T00:16:05.226Z,83.37
2022-10-22T00:18:41.439Z,83.38
2022-10-22T00:21:17.327Z,83.37
2022-10-22T00:23:53.165Z,83.49
2022-10-22T00:26:29.223Z,83.48
2022-10-22T00:29:05.076Z,83.55
2022-10-22T00:31:40.970Z,83.60
2022-10-22T00:34:17.151Z,83.61
2022-10-22T00:36:54.383Z,83.60
2022-10-22T00:39:32.134Z,83.69
2022-10-22T00:42:08.597Z,83.82
2022-10-22T00:45:21.982Z,84.03
2022-10-22T00:48:05.709Z,84.13
2022-10-22T00:50:48.197Z,84.06
2022-10-22T00:53:31.300Z,83.96
2022-10-22T00:56:08.993Z,83.92
2022-10-22T00:58:51.280Z,83.90
2022-10-22T01:01:32.817Z,83.90
2022-10-22T01:04:08.864Z,83.99
2022-10-22T01:06:44.825Z,83.94
2022-10-22T01:09:33.964Z,84.02
2022-10-22T01:12:20.306Z,84.18
2022-10-22T01:15:17.050Z,84.20
2022-10-22T01:18:03.700Z,84.19
2022-10-22T01:21:04.711Z,84.23
2022-10-22T01:24:31.233Z,84.15
2022-10-22T01:27:32.925Z,84.20
2022-10-22T01:30:14.116Z,84.12
2022-10-22T01:32:57.344Z,84.07
2022-10-22T01:35:39.269Z,83.95
2022-10-22T01:38:18.497Z,83.87
2022-10-22T01:40:55.849Z,83.92
2022-10-22T01:43:31.570Z,83.99
2022-10-22T01:46:13.509Z,84.08
2022-10-22T01:49:16.242Z,84.01
2022-10-22T01:52:16.702Z,83.90
2022-10-22T01:55:08.029Z,83.82
2022-10-22T01:57:58.104Z,83.72
2022-10-22T02:00:35.241Z,83.86
2022-10-22T02:03:22.817Z,83.87
2022-10-22T02:06:05.789Z,83.93
2022-10-22T02:08:40.538Z,83.95
2022-10-22T02:11:18.422Z,83.68
2022-10-22T02:14:02.388Z,83.80
2022-10-22T02:16:43.962Z,83.90
2022-10-22T02:19:28.940Z,83.94
2022-10-22T02:22:05.509Z,83.91
2022-10-22T02:24:41.771Z,83.89
2022-10-22T02:27:28.169Z,83.84
2022-10-22T02:30:09.861Z,83.89
2022-10-22T02:32:56.750Z,84.00
2022-10-22T02:35:34.232Z,83.97
2022-10-22T02:38:11.707Z,84.09
2022-10-22T02:40:48.082Z,84.12
2022-10-22T02:43:26.626Z,84.21
2022-10-22T02:46:02.549Z,84.26
2022-10-22T02:48:38.373Z,84.39
2022-10-22T02:51:14.600Z,84.44
2022-10-22T02:53:50.431Z,84.54
2022-10-22T02:56:26.223Z,84.66
2022-10-22T02:59:02.149Z,84.67
2022-10-22T03:01:38.023Z,84.62
2022-10-22T03:04:14.077Z,84.58
2022-10-22T03:06:49.904Z,84.46
2022-10-22T03:09:25.891Z,84.55
2022-10-22T03:12:01.743Z,84.56
2022-10-22T03:14:37.764Z,84.53
2022-10-22T03:17:14.594Z,84.44
2022-10-22T03:19:50.456Z,84.51
2022-10-22T03:22:31.874Z,84.52
2022-10-22T03:25:17.545Z,84.59
2022-10-22T03:27:57.120Z,84.51
2022-10-22T03:30:33.078Z,84.57
2022-10-22T03:33:09.073Z,84.50
2022-10-22T03:35:49.674Z,84.52
2022-10-22T03:38:26.032Z,84.64
2022-10-22T03:41:02.081Z,84.71
2022-10-22T03:43:41.698Z,84.94
2022-10-22T03:46:17.454Z,85.09
2022-10-22T03:48:53.434Z,84.95
2022-10-22T03:51:31.057Z,85.05
2022-10-22T03:54:07.632Z,85.18
2022-10-22T03:56:43.600Z,85.34
2022-10-22T03:59:19.672Z,85.51
2022-10-22T04:01:55.463Z,85.77
2022-10-22T04:04:31.380Z,86.04
2022-10-22T04:07:08.248Z,86.13
2022-10-22T04:09:44.046Z,86.02
2022-10-22T04:12:19.855Z,85.96
2022-10-22T04:14:55.898Z,85.85
2022-10-22T04:17:36.267Z,86.06
2022-10-22T04:20:14.705Z,86.28
2022-10-22T04:22:50.584Z,86.24
2022-10-22T04:25:26.496Z,86.11
2022-10-22T04:28:02.449Z,86.14
2022-10-22T04:30:38.813Z,86.10
2022-10-22T04:33:14.779Z,85.74
2022-10-22T04:35:50.610Z,85.68
2022-10-22T04:38:26.629Z,85.65
2022-10-22T04:41:11.808Z,86.05
2022-10-22T04:43:48.323Z,86.31
2022-10-22T04:46:25.921Z,86.51
2022-10-22T04:49:03.829Z,86.52
2022-10-22T04:51:39.673Z,86.61
2022-10-22T04:54:15.576Z,86.60
2022-10-22T04:56:51.412Z,86.59
2022-10-22T04:59:27.301Z,86.58
2022-10-22T05:02:03.094Z,86.63
2022-10-22T05:04:38.979Z,86.80
2022-10-22T05:07:15.373Z,86.91
2022-10-22T05:09:51.285Z,87.04
2022-10-22T05:12:27.158Z,87.10
2022-10-22T05:15:03.381Z,87.13
2022-10-22T05:17:41.411Z,87.08
2022-10-22T05:20:18.504Z,87.00
2022-10-22T05:22:54.427Z,86.93
2022-10-22T05:25:31.214Z,86.80
2022-10-22T05:28:07.267Z,86.75
2022-10-22T05:30:43.113Z,86.86
2022-10-22T05:33:23.334Z,86.82
2022-10-22T05:36:00.699Z,86.69
2022-10-22T05:38:38.549Z,86.67
2022-10-22T05:41:18.236Z,86.66
2022-10-22T05:43:58.047Z,86.64
2022-10-22T05:46:39.433Z,86.62
2022-10-22T05:49:19.349Z,86.60
2022-10-22T05:51:55.171Z,86.54
2022-10-22T05:54:31.064Z,86.46
2022-10-22T05:57:07.018Z,86.58
2022-10-22T05:59:43.198Z,86.51
2022-10-22T06:02:19.171Z,86.37
2022-10-22T06:04:54.990Z,86.26
2022-10-22T06:07:31.331Z,86.48
2022-10-22T06:10:10.226Z,86.58
2022-10-22T06:12:47.215Z,86.52
2022-10-22T06:15:23.819Z,86.71
2022-10-22T06:17:59.608Z,86.44
2022-10-22T06:20:36.511Z,86.53
2022-10-22T06:23:12.403Z,86.48
2022-10-22T06:25:58.686Z,86.24
2022-10-22T06:28:36.483Z,86.15
2022-10-22T06:31:13.257Z,86.12
2022-10-22T06:33:48.967Z,86.17
2022-10-22T06:36:27.040Z,86.12
2022-10-22T06:39:03.248Z,85.93
2022-10-22T06:41:39.001Z,85.81
2022-10-22T06:44:19.283Z,85.71
2022-10-22T06:46:56.794Z,85.20
2022-10-22T06:49:33.039Z,84.90
2022-10-22T06:52:09.252Z,84.75
2022-10-22T06:54:45.748Z,84.13
2022-10-22T06:57:21.792Z,83.15
2022-10-22T06:59:57.644Z,82.26
2022-10-22T07:02:33.524Z,80.67
2022-10-22T07:05:11.546Z,79.87
2022-10-22T07:07:47.378Z,79.12
2022-10-22T07:10:25.979Z,78.60
2022-10-22T07:13:04.568Z,78.45
2022-10-22T07:15:40.427Z,78.13
2022-10-22T07:18:16.408Z,76.94
2022-10-22T07:20:52.896Z,75.61
2022-10-22T07:23:30.535Z,74.60
2022-10-22T07:26:08.693Z,74.28
2022-10-22T07:28:45.124Z,74.16
2022-10-22T07:31:22.117Z,73.73
2022-10-22T07:33:58.710Z,73.94
2022-10-22T07:36:34.785Z,74.15
2022-10-22T07:39:10.742Z,73.37
2022-10-22T07:41:46.652Z,72.65
2022-10-22T07:44:22.524Z,72.44
2022-10-22T07:46:58.207Z,72.12
2022-10-22T07:49:34.415Z,71.90
2022-10-22T07:52:10.949Z,71.41
2022-10-22T07:54:46.894Z,71.18
2022-10-22T07:57:23.073Z,70.80
2022-10-22T07:59:59.674Z,70.75
2022-10-22T08:02:35.638Z,70.37
2022-10-22T08:05:14.509Z,70.54
2022-10-22T08:07:50.469Z,70.52
2022-10-22T08:10:26.332Z,70.58
2022-10-22T08:13:02.490Z,70.72
2022-10-22T08:15:38.846Z,70.75
2022-10-22T08:18:14.849Z,70.68
2022-10-22T08:20:50.846Z,69.84
2022-10-22T08:23:28.719Z,69.95
2022-10-22T08:26:04.849Z,69.91
2022-10-22T08:28:41.237Z,70.06
2022-10-22T08:31:17.394Z,69.70
2022-10-22T08:33:53.658Z,68.92
2022-10-22T08:36:29.403Z,68.71
2022-10-22T08:39:05.469Z,69.03
2022-10-22T08:41:55.208Z,69.17
2022-10-22T08:45:04.642Z,68.46
2022-10-22T08:48:05.051Z,68.25
2022-10-22T08:50:47.293Z,68.23
2022-10-22T08:53:31.809Z,67.92
2022-10-22T08:56:08.136Z,66.90
2022-10-22T08:58:50.751Z,66.91
2022-10-22T09:01:37.469Z,66.90
2022-10-22T09:04:25.553Z,66.85
2022-10-22T09:07:03.202Z,66.86
2022-10-22T09:09:48.876Z,66.59
2022-10-22T09:12:28.410Z,66.96
2022-10-22T09:15:04.748Z,66.93
2022-10-22T09:17:59.941Z,67.29
2022-10-22T09:20:50.625Z,67.11
2022-10-22T09:23:39.147Z,67.33
2022-10-22T09:26:20.224Z,67.38
2022-10-22T09:29:00.730Z,67.26
2022-10-22T09:31:37.604Z,67.15
2022-10-22T09:34:17.460Z,66.52
2022-10-22T09:37:02.750Z,65.97
2022-10-22T09:39:48.161Z,65.44
2022-10-22T09:42:25.903Z,65.65
2022-10-22T09:45:04.381Z,65.10
2022-10-22T09:48:00.622Z,64.71
2022-10-22T09:50:48.588Z,64.69
2022-10-22T09:53:30.703Z,64.76
2022-10-22T09:56:29.719Z,64.44
2022-10-22T09:59:07.918Z,64.91
2022-10-22T10:01:44.581Z,65.06
2022-10-22T10:04:20.961Z,65.41
2022-10-22T10:07:00.264Z,65.52
2022-10-22T10:09:39.108Z,66.09
2022-10-22T10:12:37.039Z,66.45
2022-10-22T10:15:29.575Z,66.43
2022-10-22T10:18:19.865Z,66.87
2022-10-22T10:21:10.885Z,66.73
2022-10-22T10:23:59.645Z,66.83
2022-10-22T10:26:51.621Z,67.06
2022-10-22T10:29:42.766Z,67.21
2022-10-22T10:32:45.283Z,67.36
2022-10-22T10:35:32.272Z,67.62
2022-10-22T10:38:33.431Z,67.65
2022-10-22T10:41:25.585Z,67.83
2022-10-22T10:44:26.149Z,67.99
2022-10-22T10:47:22.147Z,68.24
2022-10-22T10:50:17.792Z,68.31
2022-10-22T10:53:08.164Z,68.39
2022-10-22T10:56:00.946Z,68.63
2022-10-22T10:58:55.613Z,69.00
2022-10-22T11:01:43.938Z,69.41
2022-10-22T11:05:08.868Z,69.82
2022-10-22T11:07:56.142Z,70.24
2022-10-22T11:10:41.604Z,70.43
2022-10-22T11:13:27.512Z,70.80
2022-10-22T11:16:13.253Z,71.28
2022-10-22T11:18:58.899Z,71.55
2022-10-22T11:21:40.940Z,72.24
2022-10-22T11:24:24.059Z,72.43
2022-10-22T11:27:11.694Z,72.90
2022-10-22T11:29:57.891Z,73.51
2022-10-22T11:32:34.562Z,73.66
2022-10-22T11:35:20.167Z,73.84
2022-10-22T11:38:00.772Z,74.30
2022-10-22T11:40:45.317Z,74.54
2022-10-22T11:43:36.344Z,74.75
2022-10-22T11:46:44.609Z,74.71
2022-10-22T11:49:43.792Z,75.03
2022-10-22T11:52:54.519Z,75.54
2022-10-22T11:55:49.311Z,76.01
2022-10-22T11:58:44.044Z,76.42
2022-10-22T12:01:43.958Z,76.64
2022-10-22T12:04:43.207Z,77.16
2022-10-22T12:07:51.711Z,77.71
2022-10-22T12:10:36.167Z,77.77
2022-10-22T12:13:26.073Z,78.08
2022-10-22T12:16:06.701Z,78.23
2022-10-22T12:18:47.134Z,78.44
2022-10-22T12:21:23.080Z,78.52
2022-10-22T12:23:59.468Z,78.35
2022-10-22T12:26:36.675Z,78.46
2022-10-22T12:29:18.560Z,78.58
2022-10-22T12:31:52.865Z,78.83
2022-10-22T12:34:29.512Z,79.03
2022-10-22T12:37:08.857Z,79.18
2022-10-22T12:39:45.994Z,79.34
2022-10-22T12:42:23.901Z,79.44
2022-10-22T12:45:01.905Z,79.61
2022-10-22T12:47:37.839Z,79.82
2022-10-22T12:50:24.226Z,80.15
2022-10-22T12:53:00.376Z,80.36
2022-10-22T12:55:39.335Z,80.40
2022-10-22T12:58:23.325Z,80.47
2022-10-22T13:01:02.972Z,80.62
2022-10-22T13:03:45.919Z,80.61
2022-10-22T13:06:31.168Z,80.72
2022-10-22T13:09:23.895Z,80.81
2022-10-22T13:12:10.756Z,80.95
2022-10-22T13:14:49.006Z,81.19
2022-10-22T13:17:42.921Z,81.11
2022-10-22T13:20:26.697Z,81.30
2022-10-22T13:23:05.951Z,81.36
2022-10-22T13:25:42.307Z,81.45
2022-10-22T13:28:26.877Z,81.70
2022-10-22T13:31:11.063Z,81.88
2022-10-22T13:33:54.932Z,82.14
2022-10-22T13:36:31.045Z,82.36
2022-10-22T13:39:13.874Z,82.40
2022-10-22T13:41:51.326Z,82.42
2022-10-22T13:44:26.980Z,82.38
2022-10-22T13:47:02.843Z,82.51
2022-10-22T13:49:40.381Z,82.53
2022-10-22T13:52:30.940Z,82.46
2022-10-22T13:55:16.551Z,82.44
2022-10-22T13:57:53.436Z,82.52
2022-10-22T14:00:31.237Z,82.64
2022-10-22T14:03:10.609Z,82.76
2022-10-22T14:05:48.853Z,82.81
2022-10-22T14:08:28.254Z,82.87
2022-10-22T14:11:04.141Z,82.90
2022-10-22T14:13:40.712Z,82.83
2022-10-22T14:16:25.539Z,82.84
2022-10-22T14:19:02.293Z,82.82
2022-10-22T14:21:40.274Z,82.75
2022-10-22T14:24:17.785Z,82.81
2022-10-22T14:26:53.971Z,82.82
2022-10-22T14:29:30.600Z,82.75
2022-10-22T14:32:07.654Z,82.77
2022-10-22T14:34:45.865Z,82.80
2022-10-22T14:37:25.340Z,82.94
2022-10-22T14:40:02.672Z,83.07
2022-10-22T14:42:44.147Z,83.13
2022-10-22T14:45:27.046Z,83.25
2022-10-22T14:48:02.859Z,83.37
2022-10-22T14:50:38.882Z,83.53
2022-10-22T14:53:16.777Z,83.67
2022-10-22T14:55:55.659Z,83.94
2022-10-22T14:58:33.819Z,84.11
2022-10-22T15:01:11.092Z,84.24
2022-10-22T15:03:47.006Z,84.30
2022-10-22T15:06:22.759Z,84.47
2022-10-22T15:08:58.650Z,84.69
2022-10-22T15:11:34.647Z,84.79
2022-10-22T15:14:10.615Z,84.99
2022-10-22T15:16:46.666Z,85.12
2022-10-22T15:19:22.356Z,85.17
2022-10-22T15:21:58.183Z,85.28
2022-10-22T15:24:34.362Z,85.29
2022-10-22T15:27:10.543Z,85.41
2022-10-22T15:29:47.344Z,85.64
2022-10-22T15:32:23.620Z,85.82
2022-10-22T15:35:00.329Z,86.01
2022-10-22T15:37:38.960Z,86.11
2022-10-22T15:40:16.894Z,86.15
2022-10-22T15:42:52.869Z,86.24
2022-10-22T15:45:28.987Z,86.37
2022-10-22T15:48:06.479Z,86.53
2022-10-22T15:50:44.465Z,86.62
2022-10-22T15:53:20.952Z,86.84
2022-10-22T15:55:57.002Z,87.07
2022-10-22T15:58:33.331Z,87.29
2022-10-22T16:01:15.811Z,87.42
2022-10-22T16:04:00.230Z,87.53
2022-10-22T16:06:41.361Z,87.61
2022-10-22T16:09:21.744Z,87.61
2022-10-22T16:11:58.473Z,87.64
2022-10-22T16:14:34.561Z,87.61
2022-10-22T16:17:10.488Z,87.65
2022-10-22T16:19:46.546Z,87.68
2022-10-22T16:22:22.214Z,87.73
2022-10-22T16:24:58.264Z,87.83
2022-10-22T16:27:34.212Z,87.99
2022-10-22T16:30:12.978Z,88.07
2022-10-22T16:32:48.784Z,88.09
2022-10-22T16:35:24.611Z,88.11
2022-10-22T16:38:00.369Z,88.25
2022-10-22T16:40:36.294Z,88.29
2022-10-22T16:43:12.203Z,88.35
2022-10-22T16:45:54.595Z,88.50
2022-10-22T16:48:30.343Z,88.52
2022-10-22T16:51:13.759Z,88.50
2022-10-22T16:53:50.317Z,88.49
2022-10-22T16:56:26.927Z,88.49
2022-10-22T16:59:03.423Z,88.54
2022-10-22T17:01:41.429Z,88.62
2022-10-22T17:04:18.320Z,88.60
2022-10-22T17:06:54.216Z,88.59
2022-10-22T17:09:30.121Z,88.61
2022-10-22T17:12:06.637Z,88.78
2022-10-22T17:14:42.710Z,88.82
2022-10-22T17:17:18.572Z,88.83
2022-10-22T17:19:54.507Z,88.88
2022-10-22T17:22:30.918Z,88.92
2022-10-22T17:25:22.029Z,88.93
2022-10-22T17:27:57.907Z,88.99
2022-10-22T17:30:38.859Z,89.01
2022-10-22T17:33:14.875Z,89.06
2022-10-22T17:35:52.814Z,89.11
2022-10-22T17:38:29.165Z,89.11
2022-10-22T17:41:06.952Z,89.19
2022-10-22T17:46:24.585Z,89.21
2022-10-22T17:49:05.132Z,89.24
2022-10-22T17:51:41.579Z,89.20
2022-10-22T17:54:18.061Z,89.28
2022-10-22T17:56:53.726Z,89.26
2022-10-22T17:59:30.596Z,89.25
2022-10-22T18:02:06.944Z,89.29
2022-10-22T18:04:43.253Z,89.30
2022-10-22T18:07:20.800Z,89.41
2022-10-22T18:09:56.897Z,89.35
2022-10-22T18:12:32.709Z,89.37
2022-10-22T18:15:10.647Z,89.33
2022-10-22T18:17:47.145Z,89.35
2022-10-22T18:20:23.339Z,89.31
2022-10-22T18:23:00.699Z,89.34
2022-10-22T18:25:41.261Z,89.55
2022-10-22T18:28:19.441Z,89.44
2022-10-22T18:30:55.329Z,89.46
2022-10-22T18:33:32.525Z,89.55
2022-10-22T18:36:16.313Z,89.50
2022-10-22T18:38:56.558Z,89.51
2022-10-22T18:41:34.313Z,89.51
2022-10-22T18:44:13.704Z,89.54
2022-10-22T18:46:49.665Z,89.48
2022-10-22T18:49:25.824Z,89.50
2022-10-22T18:52:02.161Z,89.50
2022-10-22T18:54:40.218Z,89.46
2022-10-22T18:57:16.201Z,89.39
2022-10-22T18:59:54.656Z,89.35
2022-10-22T19:02:33.112Z,89.32
2022-10-22T19:05:10.637Z,89.33
2022-10-22T19:07:46.410Z,89.30
2022-10-22T19:10:22.730Z,89.36
2022-10-22T19:12:58.747Z,89.29
2022-10-22T19:15:34.546Z,89.31
2022-10-22T19:18:10.865Z,89.31
2022-10-22T19:20:48.915Z,89.34
2022-10-22T19:23:25.236Z,89.30
2022-10-22T19:26:12.078Z,89.27
2022-10-22T19:28:48.454Z,89.26
2022-10-22T19:31:27.541Z,89.20
2022-10-22T19:34:04.739Z,89.16
2022-10-22T19:36:41.075Z,89.16
2022-10-22T19:39:21.850Z,89.14
2022-10-22T19:41:57.604Z,89.15
2022-10-22T19:44:33.737Z,89.29
2022-10-22T19:47:10.287Z,89.23
2022-10-22T19:49:46.192Z,89.16
2022-10-22T19:52:22.226Z,89.17
2022-10-22T19:54:58.026Z,89.19
2022-10-22T19:57:35.136Z,89.14
2022-10-22T20:00:14.572Z,89.13
2022-10-22T20:02:51.235Z,89.21
2022-10-22T20:05:27.198Z,89.25
2022-10-22T20:08:03.720Z,89.19
2022-10-22T20:10:40.734Z,89.22
2022-10-22T20:13:23.351Z,89.18
2022-10-22T20:16:00.695Z,89.18
2022-10-22T20:18:38.604Z,89.22
2022-10-22T20:21:20.337Z,89.19
2022-10-22T20:23:59.554Z,89.26
2022-10-22T20:26:35.595Z,89.27
2022-10-22T20:29:14.225Z,89.30
2022-10-22T20:31:50.763Z,89.34
2022-10-22T20:34:26.924Z,89.31
2022-10-22T20:37:05.032Z,89.40
2022-10-22T20:39:40.987Z,89.38
2022-10-22T20:42:16.886Z,89.40
2022-10-22T20:44:53.586Z,89.37
2022-10-22T20:47:39.314Z,89.39
2022-10-22T20:50:31.437Z,89.50
2022-10-22T20:53:07.961Z,89.57
2022-10-22T20:55:43.947Z,89.63
2022-10-22T20:58:23.351Z,89.69
2022-10-22T21:01:09.586Z,89.79
2022-10-22T21:03:46.235Z,89.82
2022-10-22T21:06:23.359Z,89.85
2022-10-22T21:08:59.435Z,89.87
2022-10-22T21:11:35.296Z,89.83
2022-10-22T21:14:14.104Z,89.79
2022-10-22T21:16:52.939Z,89.77
2022-10-22T21:19:29.169Z,89.68
2022-10-22T21:22:04.878Z,89.64
2022-10-22T21:24:41.238Z,89.60
2022-10-22T21:27:17.025Z,89.57
2022-10-22T21:29:52.876Z,89.60
2022-10-22T21:32:28.901Z,89.58
2022-10-22T21:35:04.919Z,89.52
2022-10-22T21:37:41.108Z,89.50
2022-10-22T21:40:18.517Z,89.48
2022-10-22T21:42:55.329Z,89.42
2022-10-22T21:45:31.545Z,89.39
2022-10-22T21:48:08.424Z,89.35
2022-10-22T21:50:47.301Z,89.31
2022-10-22T21:53:23.856Z,89.28
2022-10-22T21:55:59.912Z,89.22
2022-10-22T21:58:38.476Z,89.21
2022-10-22T22:01:15.774Z,89.22
2022-10-22T22:03:53.989Z,89.37
2022-10-22T22:06:33.304Z,89.27
2022-10-22T22:09:10.460Z,89.19
2022-10-22T22:11:46.976Z,89.20
2022-10-22T22:14:22.797Z,89.21
2022-10-22T22:16:58.648Z,89.19
2022-10-22T22:19:34.479Z,89.13
2022-10-22T22:22:10.449Z,89.03
2022-10-22T22:24:46.554Z,89.10
2022-10-22T22:27:22.352Z,89.19
2022-10-22T22:29:59.307Z,89.20
2022-10-22T22:32:35.299Z,89.32
2022-10-22T22:35:13.219Z,89.41
2022-10-22T22:37:49.087Z,89.40
2022-10-22T22:40:49.147Z,89.41
2022-10-22T22:43:25.047Z,89.53
2022-10-22T22:46:09.746Z,89.55
2022-10-22T22:48:45.482Z,89.54
2022-10-22T22:51:21.931Z,89.55
2022-10-22T22:54:00.313Z,89.58
2022-10-22T22:56:38.140Z,89.72
2022-10-22T22:59:14.745Z,89.66
2022-10-22T23:01:52.390Z,89.54
2022-10-22T23:04:30.364Z,89.59
2022-10-22T23:07:06.410Z,89.65
2022-10-22T23:09:42.543Z,89.58
2022-10-22T23:12:18.406Z,89.54
2022-10-22T23:14:57.031Z,89.51
2022-10-22T23:20:14.170Z,89.50
2022-10-22T23:22:50.343Z,89.41
2022-10-22T23:25:27.120Z,89.40
2022-10-22T23:28:03.118Z,89.41
2022-10-22T23:30:45.594Z,89.44
2022-10-22T23:33:21.845Z,89.33
2022-10-22T23:35:57.765Z,89.27
2022-10-22T23:38:41.268Z,89.27
2022-10-22T23:41:17.745Z,89.21
2022-10-22T23:43:54.083Z,89.22
2022-10-22T23:46:30.333Z,89.17
2022-10-22T23:49:07.981Z,89.09
2022-10-22T23:51:44.386Z,89.05
2022-10-22T23:54:21.886Z,89.01
2022-10-22T23:56:58.061Z,89.00
2022-10-22T23:59:36.358Z,89.00
